Aérodrome :
LOGIN :

S'inscrire | Disclaimer

   EN    FR    IT 

 










Légende :    VFR   VFR Marginal   IFR   IFR Intensif   IFR Très Intensif
Visi : 
Plafond : 
>= 8 km
>= 3000ft
5 à 8 km
1000 à 3000 ft
1500m à 5 km
500 à 1000 ft
800 à 1500m
200 à 500 ft
< 800m
< 200 ft
Symboles :   Orages  Brouillard  Fortes neiges  Fortes précipitations  Vent > 20 kt
SIGMETs :   Divers  Orages  Givrage  Turbulence  Onde Orograph.  Cendres Volcan.







- Altitude de l'aérodrome : 7 ft
- Code IATA : XHE
- Voir les cartes d'approche


LFTH - Hyeres

DERNIER METAR :
  • 181800Z AUTO 19002KT CAVOK 09/05 Q1024 NOSIG

METARs EXPIRÉS :
  • 181730Z AUTO 18003KT CAVOK 11/05 Q1024 NOSIG
  • 181700Z AUTO 19004KT CAVOK 12/05 Q1023 NOSIG
  • 181630Z AUTO 19005KT CAVOK 13/06 Q1023 NOSIG
  • 181600Z AUTO 19005KT 160V230 CAVOK 13/06 Q1023 NOSIG
  • 181530Z AUTO 16005KT 110V190 9999 FEW032 14/06 Q1024 NOSIG

TAF TAF LFTH
Valide du 18 à 15h jusqu'au 19 à 15h UTC


181400Z 1815/1915 14006KT CAVOK
BECMG 1818/1820 32005KT
BECMG 1903/1905 4000 BR SCT020
PROB30
TEMPO 1903/1909 0800 BCFG SCT008
BECMG 1909/1911 25008KT 9999 SCT025
Pas de NOTAMs connus pour ce terrain.



MET'MAP, la Météo Aéronautique d'un coup d'oeil ! - Copyright ORBIFLY Décembre 2007 - Disclaimer

ORBIFLY MET'MAP TEAM :

Programmation & Développement : Alexandra Zaïnal
Conception & Développement : Baudouin d'Aumeries
Co-Programmation & Développement : Marc-Olivier Méhu
Soutien technique & logistique : Manuel Goepfert

Contact : metmap@orbifly.com




SOURCES & CREDITS :

   NOAA